Time;durP1;ratioP1;P1;durP2;ratioP2;P2;SDS_P1;SDS_P2;PMS_P1;PMS_P2;Temp;Humidity;BMP_temperature;BMP_pressure;BME280_temperature;BME280_humidity;BME280_pressure;Samples;Min_cycle;Max_cycle;Signal;HPM_P1;HPM_P2
2023/03/22 00:01:14;;;;;;;5.33;2.60;;;10.30;99.90;;;;;;5074499;28;20194;-61
2023/03/22 00:03:41;;;;;;;5.27;2.20;;;10.30;99.90;;;;;;5075293;28;20218;-61
2023/03/22 00:06:09;;;;;;;5.73;2.37;;;10.30;99.90;;;;;;5076603;28;20655;-60
2023/03/22 00:08:36;;;;;;;5.60;2.63;;;10.30;99.90;;;;;;5058479;28;20285;-61
2023/03/22 00:11:04;;;;;;;7.40;2.17;;;10.30;99.90;;;;;;5076774;28;20206;-60
2023/03/22 00:13:33;;;;;;;5.90;2.47;;;10.30;99.90;;;;;;5075079;28;20225;-61
2023/03/22 00:16:01;;;;;;;9.00;2.40;;;10.30;99.90;;;;;;5074500;28;20202;-62
2023/03/22 00:18:29;;;;;;;6.53;2.80;;;10.20;99.90;;;;;;5077753;28;20238;-61
2023/03/22 00:20:58;;;;;;;6.73;2.50;;;10.20;99.90;;;;;;5074832;28;20575;-61
2023/03/22 00:23:25;;;;;;;4.07;1.90;;;10.30;99.90;;;;;;5066121;28;20310;-61
2023/03/22 00:25:52;;;;;;;3.67;1.87;;;10.20;99.90;;;;;;5073666;28;20203;-61
2023/03/22 00:28:19;;;;;;;7.03;2.10;;;10.30;99.90;;;;;;5070758;28;20199;-60
2023/03/22 00:30:52;;;;;;;5.63;2.30;;;10.20;99.90;;;;;;5058114;28;20207;-61
2023/03/22 00:33:20;;;;;;;6.20;2.20;;;10.20;99.90;;;;;;5077378;28;20233;-60
2023/03/22 00:35:51;;;;;;;4.30;2.20;;;10.20;99.90;;;;;;5075530;28;20206;-61
2023/03/22 00:38:19;;;;;;;4.67;1.93;;;10.20;99.90;;;;;;5078062;28;20212;-61
2023/03/22 00:40:49;;;;;;;4.70;1.90;;;10.20;99.90;;;;;;5075563;28;20200;-60
2023/03/22 00:43:16;;;;;;;5.97;1.87;;;10.10;99.90;;;;;;5045443;28;20230;-61
2023/03/22 00:45:43;;;;;;;6.93;2.27;;;10.10;99.90;;;;;;5057026;28;20205;-60
2023/03/22 00:48:11;;;;;;;4.83;2.33;;;10.10;99.90;;;;;;5094250;28;20256;-68
2023/03/22 00:50:39;;;;;;;4.27;2.47;;;10.20;99.90;;;;;;5075960;28;20219;-64
2023/03/22 00:53:07;;;;;;;5.13;2.43;;;10.20;99.90;;;;;;5092605;27;20654;-61
2023/03/22 00:55:33;;;;;;;6.40;2.30;;;10.20;99.90;;;;;;5097551;28;20277;-60
2023/03/22 00:58:00;;;;;;;6.10;2.40;;;10.20;99.90;;;;;;5099909;28;20664;-61
2023/03/22 01:00:27;;;;;;;8.57;2.63;;;10.20;99.90;;;;;;5095818;28;20194;-60
2023/03/22 01:02:58;;;;;;;4.87;2.70;;;10.20;99.90;;;;;;5099563;28;20320;-60
2023/03/22 01:05:27;;;;;;;5.00;2.50;;;10.20;99.90;;;;;;5098286;28;20211;-60
2023/03/22 01:07:54;;;;;;;6.57;2.43;;;10.30;99.90;;;;;;5082946;28;20590;-61
2023/03/22 01:10:21;;;;;;;5.73;2.80;;;10.30;99.90;;;;;;5082645;28;20287;-60
2023/03/22 01:12:48;;;;;;;7.00;2.90;;;10.30;99.90;;;;;;5099876;28;20300;-60
2023/03/22 01:15:15;;;;;;;6.77;2.73;;;10.30;99.90;;;;;;5098075;28;20896;-60
2023/03/22 01:17:42;;;;;;;8.03;3.30;;;10.20;99.90;;;;;;5080051;28;20234;-61
2023/03/22 01:20:10;;;;;;;6.33;3.33;;;10.20;99.90;;;;;;5064488;28;20211;-61
2023/03/22 01:22:36;;;;;;;8.50;2.97;;;10.20;99.90;;;;;;5097564;28;20200;-60
2023/03/22 01:25:04;;;;;;;7.17;3.13;;;10.30;99.90;;;;;;5096531;28;20636;-61
2023/03/22 01:27:31;;;;;;;8.03;2.90;;;10.30;99.90;;;;;;5096281;28;20279;-60
2023/03/22 01:29:57;;;;;;;6.37;2.77;;;10.30;99.90;;;;;;5095965;28;20586;-60
2023/03/22 01:32:24;;;;;;;9.17;3.67;;;10.30;99.90;;;;;;5098884;28;20246;-60
2023/03/22 01:34:51;;;;;;;4.73;2.93;;;10.30;99.90;;;;;;5097801;28;20238;-61
2023/03/22 01:37:18;;;;;;;7.63;3.70;;;10.40;99.90;;;;;;5097934;28;20255;-61
2023/03/22 01:39:45;;;;;;;6.03;3.83;;;10.40;99.90;;;;;;5062656;28;20643;-60
2023/03/22 01:42:15;;;;;;;6.63;4.07;;;10.40;99.90;;;;;;5096935;28;20279;-60
2023/03/22 01:44:43;;;;;;;8.77;4.33;;;10.40;99.90;;;;;;5085674;28;20234;-61
2023/03/22 01:47:10;;;;;;;10.53;4.13;;;10.40;99.90;;;;;;5080103;28;20241;-62
2023/03/22 01:49:39;;;;;;;5.67;3.90;;;10.50;99.90;;;;;;5079790;28;20231;-60
2023/03/22 01:52:11;;;;;;;10.03;4.67;;;10.50;99.90;;;;;;5098457;28;20774;-60
2023/03/22 01:54:45;;;;;;;10.80;4.63;;;10.50;99.90;;;;;;5096212;28;20609;-60
2023/03/22 01:57:12;;;;;;;8.10;4.80;;;10.50;99.90;;;;;;5096888;28;20198;-60
2023/03/22 01:59:39;;;;;;;10.80;5.27;;;10.60;99.90;;;;;;5093883;28;20259;-60
2023/03/22 02:02:13;;;;;;;11.53;4.43;;;10.60;99.90;;;;;;5094614;28;20199;-61
2023/03/22 02:04:40;;;;;;;7.13;4.83;;;10.60;99.90;;;;;;5095158;28;20272;-61
2023/03/22 02:07:14;;;;;;;7.53;4.60;;;10.50;99.90;;;;;;5097033;28;20724;-62
2023/03/22 02:09:42;;;;;;;6.90;5.07;;;10.50;99.90;;;;;;5098325;28;20687;-62
2023/03/22 02:12:19;;;;;;;8.07;5.10;;;10.60;99.90;;;;;;5099158;28;20203;-59
2023/03/22 02:15:12;;;;;;;6.87;4.80;;;10.50;99.90;;;;;;5094962;28;20205;-59
2023/03/22 02:18:22;;;;;;;10.90;5.70;;;10.60;99.90;;;;;;5087075;28;20221;-59
2023/03/22 02:21:08;;;;;;;9.87;6.07;;;10.60;99.90;;;;;;5096588;28;20206;-59
2023/03/22 02:23:50;;;;;;;7.77;6.07;;;10.60;99.90;;;;;;5097917;28;20274;-59
2023/03/22 02:26:19;;;;;;;10.93;5.67;;;10.60;99.90;;;;;;5096399;28;20267;-59
2023/03/22 02:28:55;;;;;;;12.37;5.90;;;10.60;99.90;;;;;;5096100;28;20198;-60
2023/03/22 02:31:45;;;;;;;10.03;6.03;;;10.60;99.90;;;;;;5094817;28;20666;-60
2023/03/22 02:34:31;;;;;;;9.40;5.80;;;10.60;99.90;;;;;;5064116;28;20948;-59
2023/03/22 02:37:10;;;;;;;11.07;5.87;;;10.60;99.90;;;;;;5086405;28;20199;-60
2023/03/22 02:39:55;;;;;;;9.63;6.10;;;10.60;99.90;;;;;;5097084;28;20224;-60
2023/03/22 02:42:30;;;;;;;8.73;5.83;;;10.70;99.90;;;;;;5099727;28;20603;-60
2023/03/22 02:45:19;;;;;;;8.90;5.87;;;10.70;99.90;;;;;;5099217;28;20202;-59
2023/03/22 02:48:01;;;;;;;8.17;5.60;;;10.70;99.90;;;;;;5102429;28;20265;-59
2023/03/22 02:50:56;;;;;;;9.03;6.33;;;10.60;99.90;;;;;;5102190;28;20202;-60
2023/03/22 02:53:43;;;;;;;8.37;6.50;;;10.70;99.90;;;;;;5063267;28;20224;-59
2023/03/22 02:56:15;;;;;;;8.43;5.73;;;10.70;99.90;;;;;;5082265;28;20201;-60
2023/03/22 02:58:52;;;;;;;12.50;6.50;;;10.70;99.90;;;;;;5083889;28;20202;-60
2023/03/22 03:01:44;;;;;;;8.83;5.80;;;10.80;99.90;;;;;;5099474;28;20664;-60
2023/03/22 03:04:17;;;;;;;7.30;4.93;;;10.80;99.90;;;;;;5095413;27;20205;-60
2023/03/22 03:06:47;;;;;;;11.50;5.50;;;10.80;99.90;;;;;;5100810;28;20203;-62
2023/03/22 03:09:16;;;;;;;7.77;5.97;;;10.90;99.90;;;;;;5082768;28;20202;-62
2023/03/22 03:11:49;;;;;;;8.57;5.43;;;10.90;99.90;;;;;;5099869;28;20650;-59
2023/03/22 03:14:23;;;;;;;10.93;5.80;;;10.90;99.90;;;;;;5097069;27;20205;-59
2023/03/22 03:17:18;;;;;;;10.27;5.47;;;10.90;99.90;;;;;;5098592;27;20211;-59
2023/03/22 03:19:57;;;;;;;7.93;5.63;;;10.90;99.90;;;;;;5101153;28;20701;-60
2023/03/22 03:22:26;;;;;;;8.30;5.03;;;10.90;99.90;;;;;;5081691;28;20224;-60
2023/03/22 03:25:17;;;;;;;7.23;5.20;;;10.90;99.90;;;;;;5095746;28;20206;-60
2023/03/22 03:27:56;;;;;;;13.17;5.43;;;10.90;99.90;;;;;;5100074;28;20613;-59
2023/03/22 03:30:39;;;;;;;10.87;5.00;;;10.90;99.90;;;;;;5098312;28;20197;-59
2023/03/22 03:33:16;;;;;;;8.67;5.00;;;10.90;99.90;;;;;;5098209;28;20213;-60
2023/03/22 03:35:50;;;;;;;7.43;4.60;;;10.80;99.90;;;;;;5099901;28;20198;-60
2023/03/22 03:38:27;;;;;;;7.07;4.67;;;10.90;99.90;;;;;;5097602;28;20277;-60
2023/03/22 03:41:01;;;;;;;7.07;4.70;;;10.90;99.90;;;;;;5084535;28;20780;-60
2023/03/22 03:43:29;;;;;;;8.37;4.80;;;10.80;99.90;;;;;;5099205;28;20282;-60
2023/03/22 03:45:57;;;;;;;11.83;4.03;;;10.80;99.90;;;;;;5097901;27;20194;-60
2023/03/22 03:48:27;;;;;;;6.50;4.00;;;10.80;99.90;;;;;;5098753;28;20231;-62
2023/03/22 03:50:57;;;;;;;7.57;4.27;;;10.80;99.90;;;;;;5080847;28;20289;-59
2023/03/22 03:53:24;;;;;;;7.87;4.40;;;10.70;99.90;;;;;;5095045;28;20681;-59
2023/03/22 03:55:50;;;;;;;7.27;5.10;;;10.70;99.90;;;;;;5096735;28;20202;-60
2023/03/22 03:58:17;;;;;;;7.57;4.27;;;10.60;99.90;;;;;;5080751;28;20210;-60
2023/03/22 04:00:45;;;;;;;6.40;4.53;;;10.70;99.90;;;;;;5095531;28;20297;-60
2023/03/22 04:03:12;;;;;;;7.10;4.30;;;10.60;99.90;;;;;;5078695;28;20248;-60
2023/03/22 04:05:40;;;;;;;11.20;4.17;;;10.60;99.90;;;;;;5079454;28;20199;-61
2023/03/22 04:08:07;;;;;;;6.30;4.07;;;10.60;99.90;;;;;;5095619;28;20204;-61
2023/03/22 04:10:34;;;;;;;6.03;4.53;;;10.60;99.90;;;;;;5096100;28;20653;-61
2023/03/22 04:13:01;;;;;;;6.37;4.53;;;10.50;99.90;;;;;;5096565;28;20206;-59
2023/03/22 04:15:28;;;;;;;6.87;3.93;;;10.50;99.90;;;;;;5094574;28;20646;-60
2023/03/22 04:17:54;;;;;;;5.40;3.97;;;10.50;99.90;;;;;;5097527;28;20249;-60
2023/03/22 04:20:21;;;;;;;6.63;3.97;;;10.50;99.90;;;;;;5097757;28;20211;-59
2023/03/22 04:22:48;;;;;;;5.77;3.70;;;10.50;99.90;;;;;;5098908;28;20198;-62
2023/03/22 04:25:16;;;;;;;8.80;4.87;;;10.50;99.90;;;;;;5074461;28;20548;-61
2023/03/22 04:27:49;;;;;;;6.03;3.73;;;10.40;99.90;;;;;;5074689;28;20198;-61
2023/03/22 04:30:20;;;;;;;9.53;3.77;;;10.40;99.90;;;;;;5093164;28;20206;-61
2023/03/22 04:32:48;;;;;;;6.20;3.60;;;10.40;99.90;;;;;;5098102;28;20292;-60
2023/03/22 04:35:15;;;;;;;6.00;3.47;;;10.40;99.90;;;;;;5095518;28;20234;-60
2023/03/22 04:37:43;;;;;;;7.70;3.67;;;10.40;99.90;;;;;;5097381;28;20297;-60
2023/03/22 04:40:15;;;;;;;6.20;3.77;;;10.40;99.90;;;;;;5096090;28;20225;-60
2023/03/22 04:42:44;;;;;;;7.17;3.63;;;10.40;99.90;;;;;;5079165;28;20201;-60
2023/03/22 04:45:12;;;;;;;8.03;3.53;;;10.30;99.90;;;;;;5094991;28;20267;-60
2023/03/22 04:47:39;;;;;;;5.30;3.33;;;10.30;99.90;;;;;;5063047;28;1112006;-60
2023/03/22 04:50:07;;;;;;;7.03;3.27;;;10.30;99.90;;;;;;5093012;28;20217;-60
2023/03/22 04:52:34;;;;;;;9.37;3.43;;;10.40;99.90;;;;;;5097903;28;20625;-60
2023/03/22 04:55:01;;;;;;;6.67;3.00;;;10.40;99.90;;;;;;5095582;28;20351;-60
2023/03/22 04:57:28;;;;;;;8.17;3.27;;;10.40;99.90;;;;;;5096774;27;20206;-60
2023/03/22 04:59:55;;;;;;;6.17;3.43;;;10.30;99.90;;;;;;5099796;28;20243;-60
2023/03/22 05:02:22;;;;;;;7.63;3.60;;;10.40;99.90;;;;;;5096340;28;20570;-61
2023/03/22 05:04:49;;;;;;;5.67;2.70;;;10.40;99.90;;;;;;5094241;28;20659;-59
2023/03/22 05:07:15;;;;;;;4.43;2.57;;;10.40;99.90;;;;;;5100040;28;20665;-60
2023/03/22 05:09:42;;;;;;;6.50;2.43;;;10.40;99.90;;;;;;5099681;28;20211;-59
2023/03/22 05:12:09;;;;;;;8.30;2.93;;;10.40;99.90;;;;;;5098181;28;20210;-60
2023/03/22 05:14:36;;;;;;;9.50;2.80;;;10.30;99.90;;;;;;5091689;28;20245;-59
2023/03/22 05:17:03;;;;;;;11.13;2.97;;;10.30;99.90;;;;;;5097059;28;20207;-59
2023/03/22 05:19:31;;;;;;;7.60;3.13;;;10.30;99.90;;;;;;5096932;28;20283;-59
2023/03/22 05:22:00;;;;;;;5.87;2.80;;;10.30;99.90;;;;;;5098476;28;20211;-59
2023/03/22 05:24:30;;;;;;;7.03;3.07;;;10.30;99.90;;;;;;5078903;28;20632;-59
2023/03/22 05:26:59;;;;;;;7.00;2.70;;;10.30;99.90;;;;;;5095108;28;20557;-59
2023/03/22 05:29:27;;;;;;;5.53;2.83;;;10.30;99.90;;;;;;5095152;28;20209;-60
2023/03/22 05:31:54;;;;;;;7.00;2.47;;;10.30;99.90;;;;;;5096163;28;20237;-60
2023/03/22 05:34:21;;;;;;;5.07;2.50;;;10.30;99.90;;;;;;5091572;28;20673;-60
2023/03/22 05:36:50;;;;;;;8.30;2.50;;;10.30;99.90;;;;;;5099587;28;20238;-60
2023/03/22 05:39:17;;;;;;;7.90;2.50;;;10.30;99.90;;;;;;5099972;28;20212;-59
2023/03/22 05:41:44;;;;;;;7.27;2.93;;;10.20;99.90;;;;;;5095879;28;20209;-58
2023/03/22 05:44:11;;;;;;;5.53;2.60;;;10.20;99.90;;;;;;5093042;28;20230;-61
2023/03/22 05:46:38;;;;;;;4.70;2.83;;;10.20;99.90;;;;;;5096249;28;20206;-61
2023/03/22 05:49:05;;;;;;;5.40;1.93;;;10.20;99.90;;;;;;5098436;28;20547;-61
2023/03/22 05:51:32;;;;;;;5.83;2.50;;;10.20;99.90;;;;;;5097411;28;20376;-61
2023/03/22 05:53:59;;;;;;;4.10;2.00;;;10.10;99.90;;;;;;5095512;28;20256;-61
2023/03/22 05:56:26;;;;;;;7.07;2.20;;;10.10;99.90;;;;;;5096206;28;20695;-60
2023/03/22 05:58:53;;;;;;;3.60;2.93;;;10.10;99.90;;;;;;5096753;28;20278;-61
2023/03/22 06:01:20;;;;;;;10.53;2.20;;;10.10;99.90;;;;;;5096612;28;20216;-61
2023/03/22 06:03:48;;;;;;;3.77;2.10;;;10.10;99.90;;;;;;5096916;28;20592;-66
2023/03/22 06:06:15;;;;;;;7.17;2.70;;;10.10;99.90;;;;;;5096617;28;20226;-61
2023/03/22 06:08:42;;;;;;;6.97;2.40;;;10.10;99.90;;;;;;5099824;28;20197;-61
2023/03/22 06:11:09;;;;;;;7.00;2.47;;;10.20;99.90;;;;;;5096523;28;20327;-61
2023/03/22 06:13:36;;;;;;;4.20;2.30;;;10.20;99.90;;;;;;5098524;28;20654;-60
2023/03/22 06:16:04;;;;;;;5.53;2.20;;;10.20;99.90;;;;;;5097294;28;20633;-61
2023/03/22 06:18:32;;;;;;;5.63;2.03;;;10.20;99.90;;;;;;5099588;28;20221;-61
2023/03/22 06:20:59;;;;;;;5.10;1.87;;;10.20;99.90;;;;;;5098020;28;20237;-61
2023/03/22 06:23:26;;;;;;;5.53;2.17;;;10.20;99.90;;;;;;5095724;28;20207;-62
2023/03/22 06:25:53;;;;;;;6.80;2.20;;;10.10;99.90;;;;;;5093727;28;20218;-61
2023/03/22 06:28:20;;;;;;;7.53;2.10;;;10.20;99.90;;;;;;5097748;28;20266;-61
2023/03/22 06:30:47;;;;;;;6.03;2.23;;;10.20;99.90;;;;;;5091264;28;20336;-61
2023/03/22 06:33:14;;;;;;;5.93;2.27;;;10.20;99.90;;;;;;5094894;28;20413;-61
2023/03/22 06:35:41;;;;;;;9.67;2.10;;;10.20;99.90;;;;;;5093546;28;20206;-61
2023/03/22 06:38:08;;;;;;;4.10;1.70;;;10.20;99.90;;;;;;5097619;28;20208;-61
2023/03/22 06:40:35;;;;;;;4.53;1.97;;;10.30;99.90;;;;;;5094728;28;20281;-60
2023/03/22 06:43:02;;;;;;;4.70;1.60;;;10.30;99.90;;;;;;5097419;28;20654;-61
2023/03/22 06:45:33;;;;;;;4.03;2.00;;;10.30;99.90;;;;;;5093682;28;20204;-61
2023/03/22 06:47:59;;;;;;;6.33;1.70;;;10.30;99.90;;;;;;5097997;28;20734;-61
2023/03/22 06:50:27;;;;;;;7.30;1.90;;;10.40;99.90;;;;;;5095814;28;20205;-61
2023/03/22 06:52:54;;;;;;;5.70;1.40;;;10.50;99.90;;;;;;5097411;28;20621;-61
2023/03/22 06:55:21;;;;;;;5.90;1.60;;;10.50;99.90;;;;;;5091975;28;20197;-61
2023/03/22 06:57:48;;;;;;;8.17;2.57;;;10.60;99.90;;;;;;5078918;28;20867;-62
2023/03/22 07:00:16;;;;;;;7.73;2.53;;;10.60;99.90;;;;;;5092184;28;20232;-62
2023/03/22 07:02:43;;;;;;;7.93;2.07;;;10.70;99.90;;;;;;5095668;28;20290;-61
2023/03/22 07:05:09;;;;;;;6.20;2.07;;;10.70;99.90;;;;;;5094535;28;20263;-61
2023/03/22 07:07:36;;;;;;;4.63;1.90;;;10.70;99.90;;;;;;5097310;28;20204;-61
2023/03/22 07:10:03;;;;;;;4.33;1.60;;;10.70;99.90;;;;;;5098096;28;20237;-61
2023/03/22 07:12:30;;;;;;;7.77;1.67;;;10.70;99.90;;;;;;5095316;28;20304;-61
2023/03/22 07:14:57;;;;;;;5.23;2.00;;;10.70;99.90;;;;;;5088700;28;20299;-61
2023/03/22 07:17:24;;;;;;;6.50;2.20;;;10.70;99.90;;;;;;4724952;28;10000251;-61
2023/03/22 07:19:52;;;;;;;3.93;1.63;;;10.70;99.90;;;;;;5087533;28;20234;-60
2023/03/22 07:22:21;;;;;;;7.50;1.90;;;10.70;99.90;;;;;;5095627;28;20599;-61
2023/03/22 07:24:48;;;;;;;5.57;1.97;;;10.70;99.90;;;;;;5093877;28;20666;-61
2023/03/22 07:27:24;;;;;;;4.60;2.17;;;10.80;99.90;;;;;;5098924;28;20612;-61
2023/03/22 07:29:51;;;;;;;5.47;1.87;;;10.80;99.90;;;;;;5094323;28;20224;-61
2023/03/22 07:32:17;;;;;;;5.90;2.50;;;10.90;99.90;;;;;;5094627;28;20691;-60
2023/03/22 07:34:45;;;;;;;5.97;2.20;;;10.80;99.90;;;;;;5094600;28;20536;-60
2023/03/22 07:37:12;;;;;;;3.47;2.00;;;10.90;99.90;;;;;;5095208;28;20208;-60
2023/03/22 07:39:39;;;;;;;4.37;2.33;;;10.80;99.90;;;;;;5093627;27;20224;-61
2023/03/22 07:42:05;;;;;;;5.40;2.10;;;10.90;99.90;;;;;;5095028;28;20216;-60
2023/03/22 07:44:32;;;;;;;7.57;2.20;;;10.90;99.90;;;;;;5090072;28;20230;-60
2023/03/22 07:46:59;;;;;;;7.03;2.40;;;11.00;99.90;;;;;;5091625;28;20704;-60
2023/03/22 07:49:27;;;;;;;5.77;2.40;;;11.10;99.90;;;;;;5089493;28;20305;-60
2023/03/22 07:51:54;;;;;;;5.37;2.50;;;11.10;99.90;;;;;;5094326;28;22017;-59
2023/03/22 07:54:20;;;;;;;5.40;2.23;;;11.10;99.90;;;;;;5092923;28;20202;-60
2023/03/22 07:57:00;;;;;;;7.60;2.77;;;11.10;99.90;;;;;;5095851;28;20605;-61
2023/03/22 07:59:27;;;;;;;6.90;2.10;;;11.20;99.90;;;;;;5089891;28;20717;-61
2023/03/22 08:01:54;;;;;;;10.07;2.60;;;11.20;99.90;;;;;;5094036;28;20215;-57
2023/03/22 08:04:21;;;;;;;6.13;2.23;;;11.20;99.90;;;;;;5093560;28;20208;-60
2023/03/22 08:06:48;;;;;;;7.10;2.00;;;11.30;99.90;;;;;;5095147;28;20200;-57
2023/03/22 08:09:16;;;;;;;3.87;1.70;;;11.20;99.90;;;;;;5076350;28;20258;-57
2023/03/22 08:11:43;;;;;;;8.27;1.70;;;11.20;99.90;;;;;;5064867;28;20680;-58
2023/03/22 08:14:10;;;;;;;4.57;1.90;;;11.20;99.90;;;;;;5093484;28;20211;-57
2023/03/22 08:16:37;;;;;;;4.53;1.67;;;11.30;99.90;;;;;;5077009;28;20210;-57
2023/03/22 08:19:04;;;;;;;5.67;2.27;;;11.30;99.90;;;;;;5096672;27;20350;-60
2023/03/22 08:21:31;;;;;;;3.37;1.80;;;11.40;99.90;;;;;;5099755;27;20245;-57
2023/03/22 08:24:01;;;;;;;7.77;2.13;;;11.40;99.90;;;;;;5074686;28;20319;-57
2023/03/22 08:26:28;;;;;;;6.40;2.30;;;11.50;99.90;;;;;;5075639;28;20283;-58
2023/03/22 08:28:56;;;;;;;6.77;1.80;;;11.50;99.90;;;;;;5093577;28;20195;-57
2023/03/22 08:31:22;;;;;;;6.70;2.47;;;11.50;99.90;;;;;;5086113;28;20304;-58
2023/03/22 08:33:49;;;;;;;3.97;1.87;;;11.50;99.90;;;;;;5079582;28;20206;-58
2023/03/22 08:36:19;;;;;;;2.30;1.50;;;11.70;99.90;;;;;;5083594;28;20344;-57
2023/03/22 08:38:45;;;;;;;4.53;1.90;;;11.70;99.90;;;;;;5085333;28;20260;-58
2023/03/22 08:41:14;;;;;;;4.53;1.90;;;11.70;99.90;;;;;;5077775;28;20226;-58
2023/03/22 08:43:42;;;;;;;4.13;1.50;;;11.70;99.90;;;;;;5094703;28;20197;-58
2023/03/22 08:46:08;;;;;;;5.23;1.50;;;11.70;99.90;;;;;;5094268;27;20221;-57
2023/03/22 08:48:37;;;;;;;5.30;1.57;;;11.80;99.90;;;;;;5088838;28;20326;-57
2023/03/22 08:51:05;;;;;;;6.60;1.90;;;11.80;99.90;;;;;;5093486;28;20672;-58
2023/03/22 08:53:32;;;;;;;8.10;2.23;;;11.80;99.90;;;;;;5091430;28;20212;-58
2023/03/22 08:56:00;;;;;;;6.50;2.20;;;11.80;99.90;;;;;;5074679;28;20732;-58
2023/03/22 08:58:27;;;;;;;8.20;1.80;;;11.80;99.90;;;;;;5091652;27;20240;-57
2023/03/22 09:00:54;;;;;;;7.40;2.00;;;11.90;99.90;;;;;;5092348;28;20323;-57
2023/03/22 09:03:23;;;;;;;6.40;1.70;;;11.90;99.90;;;;;;5096096;28;20243;-59
2023/03/22 09:05:51;;;;;;;5.20;1.70;;;11.90;99.90;;;;;;5094124;28;21018;-60
2023/03/22 09:08:19;;;;;;;6.03;1.70;;;11.90;99.90;;;;;;5090391;28;20771;-60
2023/03/22 09:10:50;;;;;;;3.23;1.77;;;11.90;99.90;;;;;;5067530;28;20213;-59
2023/03/22 09:13:17;;;;;;;5.30;1.57;;;11.90;99.90;;;;;;5094210;27;20201;-59
2023/03/22 09:15:44;;;;;;;6.73;1.80;;;12.00;99.90;;;;;;5088521;28;20201;-59
2023/03/22 09:18:12;;;;;;;3.53;1.50;;;12.00;99.90;;;;;;5070724;28;20224;-60
2023/03/22 09:20:39;;;;;;;6.47;1.60;;;11.90;99.90;;;;;;5083346;28;20398;-60
2023/03/22 09:23:06;;;;;;;6.47;1.63;;;11.90;99.90;;;;;;5074763;28;20226;-60
2023/03/22 09:25:33;;;;;;;5.80;1.80;;;11.90;99.90;;;;;;5093859;28;20202;-60
2023/03/22 09:28:01;;;;;;;6.67;1.70;;;11.90;99.90;;;;;;5095342;28;20199;-60
2023/03/22 09:30:28;;;;;;;5.13;2.13;;;11.90;99.90;;;;;;5095436;28;20253;-60
2023/03/22 09:32:54;;;;;;;6.33;1.70;;;11.90;99.90;;;;;;5093044;28;20707;-60
2023/03/22 09:35:21;;;;;;;11.60;1.80;;;11.90;99.90;;;;;;5076134;28;20891;-59
2023/03/22 09:37:51;;;;;;;4.57;2.30;;;12.00;99.90;;;;;;5090017;28;20209;-60
2023/03/22 09:40:20;;;;;;;5.90;2.53;;;12.00;99.90;;;;;;5090944;28;20729;-60
2023/03/22 09:42:51;;;;;;;5.47;1.80;;;12.00;99.90;;;;;;5092002;28;20202;-59
2023/03/22 09:45:23;;;;;;;3.20;1.80;;;12.10;99.90;;;;;;5093411;28;20213;-60
2023/03/22 09:47:53;;;;;;;7.53;1.90;;;12.00;99.90;;;;;;5093864;28;20233;-59
2023/03/22 09:50:30;;;;;;;4.17;1.53;;;12.00;99.90;;;;;;5079079;28;20197;-60
2023/03/22 09:52:58;;;;;;;7.10;1.53;;;12.00;99.90;;;;;;5096106;28;20604;-63
2023/03/22 09:55:50;;;;;;;3.37;1.30;;;12.10;99.90;;;;;;5096801;28;20240;-60
2023/03/22 09:58:31;;;;;;;8.03;2.07;;;12.10;99.90;;;;;;5096648;28;20201;-59
2023/03/22 10:01:01;;;;;;;4.97;1.53;;;12.10;99.90;;;;;;5090751;28;20215;-59
2023/03/22 10:03:29;;;;;;;6.40;1.70;;;12.00;99.90;;;;;;5091706;28;20293;-60
2023/03/22 10:06:17;;;;;;;7.37;2.23;;;12.00;99.90;;;;;;5092385;28;20286;-60
2023/03/22 10:09:06;;;;;;;4.27;1.50;;;11.90;99.90;;;;;;5077278;28;20638;-60
2023/03/22 10:12:05;;;;;;;6.47;1.77;;;11.90;99.90;;;;;;5094135;28;20559;-60
2023/03/22 10:14:44;;;;;;;8.53;1.53;;;11.90;99.90;;;;;;5082520;28;20266;-60
2023/03/22 10:17:16;;;;;;;6.00;1.40;;;11.90;99.90;;;;;;5074376;28;20285;-59
2023/03/22 10:20:08;;;;;;;6.70;1.60;;;11.80;99.90;;;;;;5088239;28;20220;-60
2023/03/22 10:22:39;;;;;;;3.50;1.87;;;11.80;99.90;;;;;;5092500;27;20222;-59
2023/03/22 10:25:08;;;;;;;3.53;1.30;;;11.70;99.90;;;;;;5093132;28;20189;-58
2023/03/22 10:27:36;;;;;;;4.77;1.70;;;11.70;99.90;;;;;;5097973;28;20697;-58
2023/03/22 10:30:29;;;;;;;2.30;1.30;;;11.50;99.90;;;;;;5077699;28;20307;-58
2023/03/22 10:33:08;;;;;;;6.17;1.43;;;11.30;99.90;;;;;;5092717;28;20276;-58
2023/03/22 10:35:36;;;;;;;3.57;1.23;;;11.20;99.90;;;;;;5097682;28;20202;-58
2023/03/22 10:38:08;;;;;;;4.27;1.60;;;11.10;99.90;;;;;;5076707;28;20209;-58
2023/03/22 10:40:36;;;;;;;6.77;1.97;;;10.90;99.90;;;;;;5096674;28;20198;-58
2023/03/22 10:43:19;;;;;;;7.03;2.10;;;11.00;99.90;;;;;;5096906;28;20190;-58
2023/03/22 10:45:47;;;;;;;5.10;1.87;;;10.90;99.90;;;;;;5092598;28;20829;-58
2023/03/22 10:48:35;;;;;;;5.20;1.43;;;10.90;99.90;;;;;;5072940;28;20235;-58
2023/03/22 10:51:03;;;;;;;4.93;2.00;;;10.90;99.90;;;;;;5094169;28;20204;-60
2023/03/22 10:53:37;;;;;;;3.10;1.60;;;10.90;99.90;;;;;;5090668;28;20197;-60
2023/03/22 10:56:10;;;;;;;7.40;1.80;;;10.80;99.90;;;;;;5094462;28;20204;-60
2023/03/22 10:58:37;;;;;;;5.13;1.60;;;10.80;99.90;;;;;;5090105;28;20204;-60
2023/03/22 11:01:07;;;;;;;6.17;1.83;;;10.80;99.90;;;;;;5092254;28;20220;-61
2023/03/22 11:03:35;;;;;;;3.90;1.77;;;10.70;99.90;;;;;;5090034;28;20538;-60
2023/03/22 11:06:06;;;;;;;7.03;1.90;;;10.80;99.90;;;;;;5093095;28;20205;-61
2023/03/22 11:08:42;;;;;;;8.97;2.43;;;10.80;99.90;;;;;;5100830;28;20192;-60
2023/03/22 11:11:25;;;;;;;4.13;1.77;;;10.80;99.90;;;;;;5097236;28;20211;-62
2023/03/22 11:14:03;;;;;;;5.53;2.00;;;10.90;99.90;;;;;;5088149;28;20253;-60
2023/03/22 11:16:30;;;;;;;7.20;2.40;;;10.80;99.90;;;;;;5097082;27;20255;-61
2023/03/22 11:19:00;;;;;;;4.10;2.00;;;11.00;99.90;;;;;;5096048;28;20225;-60
2023/03/22 11:21:31;;;;;;;5.57;2.20;;;11.10;99.90;;;;;;5095960;28;20228;-64
2023/03/22 11:24:05;;;;;;;6.60;2.03;;;11.20;99.90;;;;;;5094118;28;20578;-62
2023/03/22 11:26:36;;;;;;;4.87;2.30;;;11.30;99.90;;;;;;5073020;28;20301;-60
2023/03/22 11:29:16;;;;;;;5.53;2.10;;;11.30;99.90;;;;;;5095782;28;20294;-61
2023/03/22 11:31:53;;;;;;;8.80;2.40;;;11.30;99.90;;;;;;5092017;28;20616;-60
2023/03/22 11:34:27;;;;;;;5.07;2.17;;;11.30;99.90;;;;;;5089583;28;20209;-60
2023/03/22 11:36:58;;;;;;;6.00;1.93;;;11.30;99.90;;;;;;5095434;28;20214;-60
2023/03/22 11:39:27;;;;;;;6.90;2.67;;;11.30;99.90;;;;;;5089093;28;20297;-66
2023/03/22 11:42:05;;;;;;;4.90;2.50;;;11.20;99.90;;;;;;5091703;28;20207;-62
2023/03/22 11:44:34;;;;;;;6.90;1.80;;;11.30;99.90;;;;;;5090656;28;20226;-61
2023/03/22 11:47:03;;;;;;;7.50;2.27;;;11.20;99.90;;;;;;5083324;28;20583;-61
2023/03/22 11:49:45;;;;;;;4.07;2.47;;;11.20;99.90;;;;;;5091544;27;20313;-58
2023/03/22 11:52:26;;;;;;;8.83;2.03;;;11.30;99.90;;;;;;5095886;28;20204;-58
2023/03/22 11:54:54;;;;;;;5.10;1.90;;;11.30;99.90;;;;;;5088611;27;20194;-58
2023/03/22 11:57:30;;;;;;;6.40;1.97;;;11.30;99.90;;;;;;5065831;28;20207;-58
2023/03/22 12:00:12;;;;;;;5.27;1.80;;;11.30;99.90;;;;;;5090038;27;20203;-59
2023/03/22 12:02:53;;;;;;;4.43;2.53;;;11.30;99.90;;;;;;5096287;28;20238;-58
2023/03/22 12:05:26;;;;;;;2.37;1.60;;;11.50;99.90;;;;;;5090723;28;20233;-58
2023/03/22 12:08:08;;;;;;;5.97;1.13;;;11.50;99.90;;;;;;5098944;28;21498;-59
2023/03/22 12:10:41;;;;;;;6.83;2.00;;;11.50;99.90;;;;;;5097759;28;20216;-58
2023/03/22 12:13:19;;;;;;;7.57;2.13;;;11.50;99.90;;;;;;5095998;27;20289;-59
2023/03/22 12:15:55;;;;;;;6.40;2.40;;;11.50;99.90;;;;;;5070097;28;20285;-59
2023/03/22 12:18:22;;;;;;;4.57;2.00;;;11.50;99.90;;;;;;5084789;28;20245;-60
2023/03/22 12:20:57;;;;;;;6.07;2.27;;;11.60;99.90;;;;;;5076132;28;20194;-60
2023/03/22 12:23:27;;;;;;;5.77;1.83;;;11.60;99.90;;;;;;5099459;27;20201;-60
2023/03/22 12:26:10;;;;;;;3.90;1.80;;;11.70;99.90;;;;;;5090204;28;20289;-60
2023/03/22 12:28:45;;;;;;;5.60;2.17;;;11.60;99.90;;;;;;5088780;28;20606;-60
2023/03/22 12:31:18;;;;;;;2.93;1.53;;;11.70;99.90;;;;;;5092873;27;20211;-60
2023/03/22 12:33:52;;;;;;;5.40;1.77;;;11.70;99.90;;;;;;5093360;27;20206;-60
2023/03/22 12:36:54;;;;;;;6.17;1.70;;;11.70;99.90;;;;;;5074557;28;20211;-62
2023/03/22 12:39:54;;;;;;;3.70;1.43;;;11.80;99.90;;;;;;5056151;28;20728;-62
2023/03/22 12:42:32;;;;;;;3.13;1.80;;;11.80;99.90;;;;;;5091908;28;20669;-61
2023/03/22 12:45:19;;;;;;;4.13;1.73;;;11.80;99.90;;;;;;5068706;28;20230;-62
2023/03/22 12:47:52;;;;;;;2.83;1.27;;;11.80;99.90;;;;;;5093585;28;20325;-62
2023/03/22 12:50:33;;;;;;;4.67;1.40;;;11.90;99.90;;;;;;5092531;28;20202;-62
2023/03/22 12:53:02;;;;;;;4.67;1.60;;;11.90;99.90;;;;;;5095167;28;20192;-61
2023/03/22 12:55:31;;;;;;;4.27;1.57;;;11.90;99.90;;;;;;5092095;28;20268;-63
2023/03/22 12:57:58;;;;;;;4.13;1.43;;;11.90;99.90;;;;;;5095748;28;20204;-61
2023/03/22 13:00:35;;;;;;;4.83;1.83;;;11.90;99.90;;;;;;5090868;28;22071;-61
2023/03/22 13:03:28;;;;;;;3.07;1.80;;;11.90;99.90;;;;;;5093741;28;20213;-58
2023/03/22 13:06:30;;;;;;;3.07;1.80;;;12.00;99.90;;;;;;5089304;27;20200;-60